Time;durP1;ratioP1;P1;durP2;ratioP2;P2;SDS_P1;SDS_P2;PMS_P1;PMS_P2;Temp;Humidity;BMP_temperature;BMP_pressure;BME280_temperature;BME280_humidity;BME280_pressure;Samples;Min_cycle;Max_cycle;Signal;HPM_P1;HPM_P2
2023/03/13 00:01:09;;;;;;;18.27;3.70;;;;;;;13.03;74.06;100161.50;5000470;28;20555;-42
2023/03/13 00:03:34;;;;;;;15.30;3.67;;;;;;;13.08;73.85;100167.56;5003977;28;20030;-45
2023/03/13 00:05:59;;;;;;;16.33;4.30;;;;;;;13.12;74.08;100147.47;5000749;28;20040;-45
2023/03/13 00:08:28;;;;;;;18.23;3.95;;;;;;;13.22;73.74;100134.34;5003555;28;20030;-44
2023/03/13 00:10:54;;;;;;;16.60;4.30;;;;;;;13.02;74.86;100126.63;5001087;28;20563;-43
2023/03/13 00:13:19;;;;;;;16.08;4.82;;;;;;;12.95;75.33;100121.44;5004670;28;20094;-43
2023/03/13 00:15:44;;;;;;;12.40;4.35;;;;;;;12.93;75.71;100118.81;4999508;28;20070;-44
2023/03/13 00:18:10;;;;;;;14.60;4.47;;;;;;;12.88;75.53;100104.91;5004688;28;20037;-44
2023/03/13 00:20:35;;;;;;;13.82;4.45;;;;;;;12.96;76.10;100103.13;5003146;28;20119;-45
2023/03/13 00:23:00;;;;;;;14.88;5.35;;;;;;;12.93;75.58;100076.09;4999837;28;20129;-42
2023/03/13 00:25:26;;;;;;;14.10;4.60;;;;;;;13.08;75.48;100081.22;5002965;28;20030;-43
2023/03/13 00:27:51;;;;;;;13.70;4.93;;;;;;;12.88;76.61;100073.53;4982206;28;20041;-45
2023/03/13 00:30:17;;;;;;;15.95;4.78;;;;;;;13.01;76.05;100072.53;5003194;28;20037;-43
2023/03/13 00:32:44;;;;;;;13.18;4.72;;;;;;;13.05;76.43;100064.69;4998626;28;20041;-43
2023/03/13 00:35:11;;;;;;;14.98;5.05;;;;;;;12.92;76.24;100056.06;5003498;28;20033;-42
2023/03/13 00:37:36;;;;;;;13.55;4.80;;;;;;;12.93;76.93;100045.56;5003550;28;20431;-42
2023/03/13 00:40:03;;;;;;;11.73;4.28;;;;;;;13.06;76.30;100041.09;4981524;28;20045;-41
2023/03/13 00:42:28;;;;;;;11.77;4.60;;;;;;;13.08;76.44;100052.41;5003338;28;20048;-48
2023/03/13 00:44:54;;;;;;;12.40;4.80;;;;;;;13.01;76.74;100035.03;4999533;28;20033;-43
2023/03/13 00:47:19;;;;;;;14.05;4.95;;;;;;;12.91;76.92;100017.72;5004152;28;20033;-42
2023/03/13 00:49:44;;;;;;;17.00;5.78;;;;;;;12.69;78.12;100022.25;5001479;28;20061;-43
2023/03/13 00:52:09;;;;;;;13.98;5.03;;;;;;;13.20;77.15;100023.53;5005263;28;20044;-42
2023/03/13 00:54:35;;;;;;;13.57;4.85;;;;;;;13.19;76.89;100018.31;5005229;28;20026;-43
2023/03/13 00:57:00;;;;;;;12.60;4.93;;;;;;;12.96;77.56;100006.31;5002041;28;20096;-43
2023/03/13 00:59:25;;;;;;;11.57;5.45;;;;;;;13.09;77.34;99993.97;5004677;28;20026;-42
2023/03/13 01:01:51;;;;;;;13.02;5.65;;;;;;;13.31;76.67;99981.53;5002133;28;20041;-42
2023/03/13 01:04:16;;;;;;;13.95;5.50;;;;;;;13.30;76.90;99988.50;5003336;28;20041;-42
2023/03/13 01:06:41;;;;;;;13.48;5.63;;;;;;;13.36;76.85;99982.34;5006069;28;20041;-43
2023/03/13 01:09:10;;;;;;;12.05;5.97;;;;;;;13.26;77.38;99978.97;5000336;28;20345;-45
2023/03/13 01:11:38;;;;;;;14.93;6.47;;;;;;;13.41;76.87;99964.84;5002664;28;20452;-44
2023/03/13 01:14:07;;;;;;;12.10;6.22;;;;;;;13.55;75.76;99962.03;4999073;28;20026;-45
2023/03/13 01:16:34;;;;;;;14.75;7.13;;;;;;;13.40;76.53;99945.66;5003322;28;20516;-44
2023/03/13 01:19:03;;;;;;;13.73;7.00;;;;;;;13.40;77.27;99936.94;4999698;28;20116;-42
2023/03/13 01:21:29;;;;;;;14.02;7.45;;;;;;;13.13;78.88;99952.97;5003082;28;20064;-44
2023/03/13 01:23:55;;;;;;;17.30;8.15;;;;;;;13.27;78.41;99933.59;4998673;28;20034;-44
2023/03/13 01:26:22;;;;;;;19.25;8.30;;;;;;;13.19;78.28;99937.19;5003561;28;20030;-42
2023/03/13 01:28:48;;;;;;;19.20;8.90;;;;;;;13.37;78.56;99942.19;4998274;28;20041;-44
2023/03/13 01:31:22;;;;;;;15.95;8.80;;;;;;;13.29;78.35;99933.59;5003222;28;20049;-42
2023/03/13 01:33:48;;;;;;;;;;;;;;;13.54;78.56;99915.81;5000912;28;20031;-43
2023/03/13 01:36:14;;;;;;;15.13;8.38;;;;;;;13.79;77.47;99912.78;5011095;28;20360;-43
2023/03/13 01:38:40;;;;;;;18.35;8.88;;;;;;;13.10;79.21;99916.34;4999459;28;20480;-46
2023/03/13 01:41:07;;;;;;;20.75;9.50;;;;;;;13.29;79.56;99912.66;5002473;28;20030;-43
2023/03/13 01:43:34;;;;;;;19.00;9.65;;;;;;;13.44;79.25;99898.47;5002207;28;20049;-42
2023/03/13 01:46:02;;;;;;;19.77;9.13;;;;;;;13.28;79.20;99888.22;4999891;28;20060;-43
2023/03/13 01:48:40;;;;;;;18.80;9.60;;;;;;;13.55;79.24;99886.09;5003146;28;20037;-43
2023/03/13 01:51:19;;;;;;;19.98;9.95;;;;;;;13.42;79.14;99876.69;4999777;28;20045;-43
2023/03/13 01:53:48;;;;;;;19.27;9.95;;;;;;;13.36;79.66;99877.63;4998610;28;20036;-44
2023/03/13 01:56:21;;;;;;;21.05;10.10;;;;;;;13.72;79.14;99868.38;5002940;28;20053;-44
2023/03/13 01:58:49;;;;;;;16.50;10.10;;;;;;;13.74;78.79;99856.13;4999820;28;20138;-44
2023/03/13 02:01:16;;;;;;;21.60;10.50;;;;;;;13.72;78.79;99858.75;5002440;28;20045;-43
2023/03/13 02:03:42;;;;;;;20.65;10.40;;;;;;;13.75;79.17;99857.84;4999561;28;20054;-44
2023/03/13 02:06:09;;;;;;;21.70;10.20;;;;;;;13.66;79.35;99848.38;5002630;28;20049;-42
2023/03/13 02:08:45;;;;;;;18.73;9.77;;;;;;;13.66;80.34;99852.78;5002712;28;20079;-42
2023/03/13 02:11:35;;;;;;;18.17;9.73;;;;;;;13.92;78.78;99840.09;4998805;28;20246;-44
2023/03/13 02:14:03;;;;;;;19.60;9.68;;;;;;;13.91;78.86;99829.63;4999718;28;20038;-42
2023/03/13 02:16:29;;;;;;;18.05;9.70;;;;;;;14.04;78.85;99833.78;5003139;28;20030;-42
2023/03/13 02:18:54;;;;;;;17.45;9.77;;;;;;;14.00;79.34;99838.22;4999686;28;20430;-43
2023/03/13 02:21:40;;;;;;;21.30;9.52;;;;;;;13.61;80.57;99833.63;5003624;28;20403;-43
2023/03/13 02:24:25;;;;;;;14.88;8.63;;;;;;;13.94;80.06;99824.34;5002456;28;20033;-43
2023/03/13 02:26:50;;;;;;;14.25;7.90;;;;;;;13.42;81.95;99829.56;5001530;28;20045;-42
2023/03/13 02:29:17;;;;;;;14.90;7.82;;;;;;;13.83;80.24;99814.06;5005181;28;20492;-42
2023/03/13 02:31:47;;;;;;;12.82;6.97;;;;;;;13.96;80.96;99812.97;5001111;28;20037;-43
2023/03/13 02:34:16;;;;;;;15.93;7.82;;;;;;;13.80;81.10;99828.06;5004486;28;20053;-46
2023/03/13 02:36:43;;;;;;;19.65;7.57;;;;;;;13.85;81.72;99824.50;5000603;28;20486;-50
2023/03/13 02:39:11;;;;;;;16.23;7.53;;;;;;;14.04;80.89;99818.06;5007627;28;20527;-45
2023/03/13 02:41:37;;;;;;;12.82;7.40;;;;;;;14.09;80.89;99806.59;5010914;28;20038;-43
2023/03/13 02:44:04;;;;;;;14.85;7.47;;;;;;;13.98;80.52;99813.78;5006295;28;20025;-43
2023/03/13 02:46:31;;;;;;;15.52;7.70;;;;;;;13.86;80.96;99815.75;5008187;28;20038;-43
2023/03/13 02:48:56;;;;;;;16.35;7.90;;;;;;;13.70;82.57;99812.53;5002941;28;20038;-42
2023/03/13 02:51:40;;;;;;;17.83;7.57;;;;;;;13.91;80.98;99806.91;5007863;28;20037;-42
2023/03/13 02:54:10;;;;;;;12.90;7.30;;;;;;;14.05;80.77;99806.69;5003634;28;20072;-42
2023/03/13 02:56:38;;;;;;;13.73;6.70;;;;;;;14.14;80.91;99803.91;5006368;28;20037;-43
2023/03/13 02:59:03;;;;;;;13.48;5.97;;;;;;;14.51;78.59;99781.38;5002927;28;20036;-43
2023/03/13 03:01:29;;;;;;;11.32;6.20;;;;;;;14.18;79.42;99779.38;5006313;28;20034;-42
2023/03/13 03:03:54;;;;;;;12.27;5.93;;;;;;;14.31;80.78;99790.50;5001437;28;20034;-44
2023/03/13 03:06:19;;;;;;;11.38;5.22;;;;;;;14.20;80.11;99778.47;5006261;28;20030;-44
2023/03/13 03:08:45;;;;;;;10.18;5.00;;;;;;;14.12;80.60;99772.50;5002313;28;20456;-42
2023/03/13 03:11:11;;;;;;;9.30;4.72;;;;;;;14.21;80.04;99774.06;5006496;28;20126;-44
2023/03/13 03:13:36;;;;;;;9.15;4.00;;;;;;;14.15;79.93;99777.66;5008418;28;20030;-43
2023/03/13 03:16:10;;;;;;;9.88;4.05;;;;;;;14.34;79.34;99765.06;5003840;28;20040;-46
2023/03/13 03:18:36;;;;;;;9.43;4.00;;;;;;;14.47;78.82;99768.34;5006212;28;20046;-43
2023/03/13 03:21:05;;;;;;;9.52;4.00;;;;;;;14.43;79.20;99770.19;5000801;28;20038;-43
2023/03/13 03:23:31;;;;;;;9.23;3.72;;;;;;;14.34;79.79;99772.94;5004203;28;20034;-43
2023/03/13 03:25:57;;;;;;;9.95;3.72;;;;;;;14.12;80.62;99777.72;5000437;28;20068;-44
2023/03/13 03:28:22;;;;;;;8.30;3.67;;;;;;;14.38;80.20;99766.78;5006822;28;20045;-43
2023/03/13 03:30:47;;;;;;;8.75;3.67;;;;;;;14.42;80.66;99775.44;5007689;28;20038;-43
2023/03/13 03:33:12;;;;;;;10.35;3.63;;;;;;;14.54;79.47;99772.56;5011358;28;20042;-43
2023/03/13 03:35:39;;;;;;;7.72;3.20;;;;;;;13.97;81.34;99754.41;5007910;28;20033;-55
2023/03/13 03:38:05;;;;;;;8.10;3.30;;;;;;;14.33;81.41;99760.75;5012189;28;20029;-42
2023/03/13 03:40:30;;;;;;;8.88;3.47;;;;;;;13.95;81.75;99760.59;5011139;28;20484;-44
2023/03/13 03:42:56;;;;;;;7.65;3.25;;;;;;;14.47;80.57;99760.47;5006782;28;20081;-44
2023/03/13 03:45:22;;;;;;;6.72;3.65;;;;;;;14.46;80.84;99772.72;5004758;28;20484;-45
2023/03/13 03:47:47;;;;;;;8.43;4.00;;;;;;;14.50;81.21;99758.69;5000772;28;20046;-43
2023/03/13 03:50:12;;;;;;;7.57;3.78;;;;;;;14.33;80.18;99737.16;5004019;28;20030;-43
2023/03/13 03:52:37;;;;;;;10.57;4.35;;;;;;;14.53;80.49;99768.22;5003783;28;20092;-53
2023/03/13 03:55:03;;;;;;;9.52;4.10;;;;;;;14.68;79.74;99748.69;4988106;28;20408;-44
2023/03/13 03:57:29;;;;;;;11.32;4.43;;;;;;;14.57;81.02;99754.16;5004522;28;20447;-44
2023/03/13 03:59:54;;;;;;;6.88;4.35;;;;;;;14.61;80.77;99756.69;5000064;28;20045;-46
2023/03/13 04:02:19;;;;;;;10.57;4.30;;;;;;;14.47;81.12;99747.38;5004507;28;20053;-43
2023/03/13 04:04:45;;;;;;;9.00;4.30;;;;;;;14.36;81.51;99754.56;5000472;28;20133;-42
2023/03/13 04:07:10;;;;;;;8.00;4.60;;;;;;;14.62;80.82;99752.31;5004193;28;20033;-42
2023/03/13 04:09:35;;;;;;;12.23;4.85;;;;;;;14.96;79.85;99734.94;4986559;28;20500;-42
2023/03/13 04:12:01;;;;;;;10.98;4.93;;;;;;;14.36;81.01;99744.94;5000985;28;20167;-46
2023/03/13 04:14:26;;;;;;;8.50;5.20;;;;;;;14.92;79.28;99742.91;5004785;28;20038;-42
2023/03/13 04:16:51;;;;;;;9.93;5.38;;;;;;;14.66;79.83;99743.47;5001157;28;20030;-43
2023/03/13 04:19:17;;;;;;;12.02;5.20;;;;;;;15.03;79.25;99733.03;5004021;28;20100;-43
2023/03/13 04:21:42;;;;;;;9.10;5.20;;;;;;;14.80;79.69;99743.19;4998582;28;20058;-46
2023/03/13 04:24:07;;;;;;;9.75;5.55;;;;;;;14.11;82.88;99734.06;4985760;28;20528;-43
2023/03/13 04:26:33;;;;;;;9.93;4.90;;;;;;;14.58;81.42;99734.88;5003280;28;20804;-44
2023/03/13 04:28:58;;;;;;;10.32;5.07;;;;;;;14.74;81.20;99732.81;5001085;28;20467;-45
2023/03/13 04:31:23;;;;;;;12.40;5.25;;;;;;;14.36;81.75;99725.72;5005733;28;20125;-43
2023/03/13 04:33:48;;;;;;;11.73;4.90;;;;;;;14.85;79.87;99710.69;5003180;28;20042;-45
2023/03/13 04:36:14;;;;;;;7.82;4.57;;;;;;;14.54;81.55;99715.75;5005253;28;20052;-43
2023/03/13 04:38:39;;;;;;;9.85;4.57;;;;;;;14.69;81.00;99711.94;5000172;28;20061;-43
2023/03/13 04:41:04;;;;;;;11.30;4.75;;;;;;;14.41;81.02;99689.81;5004103;28;20041;-45
2023/03/13 04:43:30;;;;;;;10.48;4.40;;;;;;;14.55;80.39;99706.97;5003212;28;20079;-41
2023/03/13 04:45:55;;;;;;;9.68;4.70;;;;;;;14.59;80.51;99689.41;4999623;28;20061;-44
2023/03/13 04:48:21;;;;;;;11.93;4.78;;;;;;;14.74;80.40;99693.47;5003418;28;20030;-44
2023/03/13 04:50:47;;;;;;;11.40;4.25;;;;;;;14.45;81.07;99699.34;4999896;28;20033;-45
2023/03/13 04:53:13;;;;;;;10.60;4.47;;;;;;;14.57;80.67;99696.47;5003300;28;20053;-46
2023/03/13 04:55:38;;;;;;;8.55;4.07;;;;;;;14.74;79.69;99686.47;5001009;28;20126;-50
2023/03/13 04:58:04;;;;;;;7.97;3.92;;;;;;;14.53;79.50;99681.66;5004109;28;20032;-45
2023/03/13 05:00:29;;;;;;;11.20;3.95;;;;;;;14.52;80.26;99679.94;5004333;28;20058;-45
2023/03/13 05:02:54;;;;;;;12.02;3.80;;;;;;;14.59;79.54;99669.28;4999472;28;20034;-44
2023/03/13 05:05:20;;;;;;;11.65;3.78;;;;;;;14.85;78.13;99676.59;5003246;28;20120;-43
2023/03/13 05:07:45;;;;;;;10.77;3.70;;;;;;;14.65;79.07;99675.28;4998699;28;20046;-44
2023/03/13 05:10:10;;;;;;;12.00;3.80;;;;;;;14.86;77.63;99675.69;5003915;28;20053;-46
2023/03/13 05:12:36;;;;;;;11.95;3.42;;;;;;;14.79;76.46;99660.13;5003013;28;20568;-45
2023/03/13 05:15:01;;;;;;;8.57;3.13;;;;;;;14.69;77.27;99648.13;4999256;28;20033;-45
2023/03/13 05:17:26;;;;;;;9.60;3.42;;;;;;;14.74;76.55;99644.50;5002891;28;20030;-44
2023/03/13 05:19:51;;;;;;;13.15;3.40;;;;;;;14.72;76.81;99648.91;4999834;28;20069;-42
2023/03/13 05:22:17;;;;;;;10.82;3.22;;;;;;;14.67;76.15;99647.28;5003166;28;20034;-45
2023/03/13 05:24:42;;;;;;;9.93;2.95;;;;;;;14.81;75.04;99645.22;4999179;28;20083;-49
2023/03/13 05:27:07;;;;;;;12.27;3.30;;;;;;;14.93;74.63;99637.06;5003092;28;20091;-44
2023/03/13 05:29:33;;;;;;;9.45;3.15;;;;;;;15.03;74.28;99641.16;5003453;28;20033;-43
2023/03/13 05:31:58;;;;;;;10.07;3.30;;;;;;;14.89;74.21;99627.50;4999225;28;20073;-44
2023/03/13 05:34:23;;;;;;;9.32;3.05;;;;;;;14.97;74.01;99634.31;5002091;28;20034;-44
2023/03/13 05:36:48;;;;;;;9.93;2.92;;;;;;;14.98;73.54;99628.16;4998681;28;20053;-43
2023/03/13 05:39:14;;;;;;;9.75;3.10;;;;;;;14.75;73.55;99617.34;5002379;28;20030;-45
2023/03/13 05:41:39;;;;;;;11.88;3.17;;;;;;;14.86;72.20;99636.31;4999440;28;20034;-52
2023/03/13 05:44:04;;;;;;;13.43;3.22;;;;;;;15.22;71.62;99626.69;5002610;28;20447;-43
2023/03/13 05:46:30;;;;;;;14.00;3.25;;;;;;;14.99;72.04;99608.91;5002005;28;20163;-45
2023/03/13 05:48:55;;;;;;;12.77;2.85;;;;;;;14.77;72.13;99626.03;4999112;28;20037;-44
2023/03/13 05:51:21;;;;;;;12.35;3.03;;;;;;;15.21;71.03;99614.47;4985606;28;20037;-42
2023/03/13 05:53:46;;;;;;;10.48;3.13;;;;;;;14.98;71.74;99620.28;5000596;28;20084;-46
2023/03/13 05:56:11;;;;;;;9.15;3.08;;;;;;;15.15;70.94;99638.25;5005325;28;20053;-43
2023/03/13 05:58:36;;;;;;;12.85;3.03;;;;;;;15.19;70.97;99654.75;5008963;28;20038;-44
2023/03/13 06:01:09;;;;;;;10.80;3.03;;;;;;;15.34;70.60;99626.38;5005687;28;20428;-45
2023/03/13 06:03:35;;;;;;;9.65;3.20;;;;;;;15.22;70.60;99631.06;5009195;28;20034;-45
2023/03/13 06:06:00;;;;;;;9.32;3.15;;;;;;;15.59;69.75;99646.78;5004495;28;20034;-46
2023/03/13 06:08:26;;;;;;;9.00;3.28;;;;;;;15.25;70.46;99623.97;5007374;28;20034;-45
2023/03/13 06:10:52;;;;;;;7.15;2.90;;;;;;;15.12;71.43;99609.47;4999311;28;20100;-45
2023/03/13 06:13:17;;;;;;;10.73;3.25;;;;;;;15.25;70.87;99641.47;5002962;28;20018;-45
2023/03/13 06:15:43;;;;;;;11.45;3.35;;;;;;;14.92;72.45;99641.44;5002821;28;20117;-44
2023/03/13 06:18:08;;;;;;;7.93;3.00;;;;;;;15.28;71.92;99639.66;5007607;28;20551;-44
2023/03/13 06:20:33;;;;;;;11.15;2.90;;;;;;;14.78;74.09;99643.50;5009030;28;20511;-46
2023/03/13 06:22:59;;;;;;;11.43;3.30;;;;;;;14.58;75.47;99629.97;5003911;28;20126;-43
2023/03/13 06:25:24;;;;;;;10.57;3.00;;;;;;;14.74;75.80;99628.75;5006743;28;20033;-44
2023/03/13 06:27:50;;;;;;;9.18;3.10;;;;;;;14.55;76.58;99641.41;5001344;28;20045;-44
2023/03/13 06:30:16;;;;;;;8.60;2.90;;;;;;;14.70;76.10;99655.09;5006921;28;20465;-45
2023/03/13 06:32:41;;;;;;;12.00;3.15;;;;;;;14.78;76.03;99645.25;5003264;28;20030;-44
2023/03/13 06:35:07;;;;;;;10.18;3.22;;;;;;;14.83;76.01;99646.88;5005616;28;20058;-44
2023/03/13 06:37:32;;;;;;;8.45;3.03;;;;;;;14.80;76.43;99644.34;5005845;28;20056;-46
2023/03/13 06:39:58;;;;;;;11.32;3.35;;;;;;;14.65;76.86;99642.06;5001988;28;20115;-44
2023/03/13 06:42:23;;;;;;;10.73;3.30;;;;;;;14.57;78.13;99652.75;5005347;28;20056;-44
2023/03/13 06:44:48;;;;;;;9.15;3.10;;;;;;;14.77;77.35;99641.78;5001397;28;20042;-44
2023/03/13 06:47:14;;;;;;;12.38;3.25;;;;;;;14.51;79.02;99645.00;5005281;28;20030;-45
2023/03/13 06:49:39;;;;;;;11.18;3.50;;;;;;;14.49;79.86;99659.91;5001791;28;20030;-42
2023/03/13 06:52:04;;;;;;;11.30;3.30;;;;;;;14.35;80.32;99632.22;5005593;28;20030;-42
2023/03/13 06:54:30;;;;;;;9.32;3.20;;;;;;;14.31;79.35;99633.19;5005913;28;20057;-44
2023/03/13 06:56:55;;;;;;;7.88;3.13;;;;;;;14.20;79.86;99657.88;4983965;28;20042;-44
2023/03/13 06:59:21;;;;;;;9.25;3.30;;;;;;;14.31;79.62;99641.91;5005713;28;20034;-44
2023/03/13 07:01:46;;;;;;;10.63;3.22;;;;;;;14.67;78.61;99632.41;5000847;28;20091;-44
2023/03/13 07:04:12;;;;;;;9.18;3.47;;;;;;;14.38;79.65;99634.81;5005217;28;20104;-45
2023/03/13 07:06:37;;;;;;;8.48;3.10;;;;;;;14.53;79.69;99650.19;5004524;28;20041;-43
2023/03/13 07:09:04;;;;;;;12.05;3.22;;;;;;;14.29;79.99;99629.72;5001142;28;20627;-42
2023/03/13 07:11:29;;;;;;;9.90;3.20;;;;;;;14.58;79.05;99646.56;5005093;28;20042;-43
2023/03/13 07:13:56;;;;;;;8.80;3.08;;;;;;;14.46;79.75;99638.13;5000545;28;20076;-45
2023/03/13 07:16:21;;;;;;;8.70;2.92;;;;;;;14.48;79.76;99631.94;5004486;28;20087;-43
2023/03/13 07:18:47;;;;;;;8.35;3.08;;;;;;;14.39;79.68;99631.31;5001110;28;20568;-46
2023/03/13 07:21:12;;;;;;;8.02;3.00;;;;;;;14.53;79.77;99626.59;4989004;28;20044;-44
2023/03/13 07:23:38;;;;;;;9.32;3.45;;;;;;;14.50;78.98;99635.41;5004332;28;20104;-43
2023/03/13 07:26:07;;;;;;;8.68;2.80;;;;;;;14.70;78.88;99637.56;4984621;28;20396;-43
2023/03/13 07:28:33;;;;;;;8.75;2.90;;;;;;;14.56;78.83;99658.03;5005217;28;20432;-43
2023/03/13 07:31:32;;;;;;;8.00;2.83;;;;;;;14.54;78.80;99641.44;5006028;28;20033;-43
2023/03/13 07:33:58;;;;;;;8.13;2.50;;;;;;;14.49;79.27;99640.69;4996861;28;20128;-43
2023/03/13 07:36:24;;;;;;;7.65;2.75;;;;;;;14.76;77.76;99652.31;5005179;28;20030;-45
2023/03/13 07:38:51;;;;;;;6.90;2.60;;;;;;;14.68;78.37;99634.13;5001512;28;20053;-46
2023/03/13 07:41:17;;;;;;;10.63;2.75;;;;;;;15.07;76.82;99645.44;5004280;28;20036;-44
2023/03/13 07:43:42;;;;;;;6.05;2.40;;;;;;;14.90;77.05;99631.84;5000059;28;20503;-44
2023/03/13 07:46:11;;;;;;;8.20;2.75;;;;;;;14.95;77.12;99620.34;5004319;28;20041;-43
2023/03/13 07:48:39;;;;;;;7.40;2.60;;;;;;;15.01;75.79;99620.19;5003223;28;20508;-43
2023/03/13 07:51:07;;;;;;;7.63;2.47;;;;;;;15.04;75.81;99624.53;5000772;28;20515;-44
2023/03/13 07:53:32;;;;;;;7.10;2.47;;;;;;;15.05;76.31;99620.13;5003789;28;20038;-44
2023/03/13 07:56:00;;;;;;;7.90;2.30;;;;;;;15.29;75.67;99614.28;5000156;28;20030;-48
2023/03/13 07:58:28;;;;;;;8.73;2.45;;;;;;;15.52;75.20;99634.66;5003043;28;20404;-48
2023/03/13 08:00:54;;;;;;;5.63;2.10;;;;;;;15.81;73.60;99619.00;4999516;28;20038;-44
2023/03/13 08:03:20;;;;;;;7.57;2.10;;;;;;;15.44;74.46;99613.84;5007192;28;20040;-43
2023/03/13 08:06:25;;;;;;;7.75;2.30;;;;;;;15.32;74.35;99614.19;5018567;23;20090;-79
2023/03/13 08:08:56;;;;;;;6.80;2.17;;;;;;;15.32;74.43;99619.44;5013685;28;20034;-78
2023/03/13 08:11:26;;;;;;;6.90;1.80;;;;;;;15.09;74.49;99620.00;5007326;28;20109;-80
2023/03/13 08:13:56;;;;;;;5.15;1.70;;;;;;;15.84;72.87;99592.66;5019834;28;20379;-81
2023/03/13 08:16:30;;;;;;;6.03;1.75;;;;;;;15.33;73.84;99608.88;5024505;28;20337;-81
2023/03/13 08:18:57;;;;;;;4.07;1.70;;;;;;;15.69;73.25;99578.16;5020867;28;20041;-81
2023/03/13 08:21:29;;;;;;;4.85;1.60;;;;;;;15.66;72.78;99587.91;5017921;28;20487;-81
2023/03/13 08:24:00;;;;;;;5.47;1.90;;;;;;;15.73;72.21;99592.09;5006820;28;20037;-79
2023/03/13 08:26:28;;;;;;;7.97;2.00;;;;;;;15.67;72.63;99600.16;5028790;28;20036;-82
2023/03/13 08:29:01;;;;;;;7.40;1.90;;;;;;;15.71;72.50;99589.50;5025583;28;20097;-82
2023/03/13 08:31:36;;;;;;;5.88;1.90;;;;;;;15.55;71.90;99595.25;5029032;28;20089;-79
2023/03/13 08:34:01;;;;;;;7.57;2.30;;;;;;;15.36;72.22;99571.19;5024124;28;20045;-79
2023/03/13 08:36:32;;;;;;;5.80;1.60;;;;;;;15.51;70.86;99577.78;5010652;28;20025;-79
2023/03/13 08:39:01;;;;;;;7.72;1.85;;;;;;;15.82;69.62;99594.47;5024919;28;20046;-81
2023/03/13 08:41:34;;;;;;;7.53;1.90;;;;;;;15.81;69.34;99571.72;5016095;28;20036;-80
2023/03/13 08:44:00;;;;;;;9.90;1.77;;;;;;;15.95;68.83;99587.94;5003581;28;20332;-81
2023/03/13 08:46:29;;;;;;;8.65;1.88;;;;;;;16.16;67.97;99565.44;5025503;28;20033;-80
2023/03/13 08:48:57;;;;;;;8.45;2.10;;;;;;;16.30;66.33;99575.50;5019908;28;20112;-81
2023/03/13 08:51:28;;;;;;;6.53;2.05;;;;;;;15.87;66.30;99581.19;5006511;28;20041;-81
2023/03/13 08:53:57;;;;;;;8.90;1.90;;;;;;;15.98;65.83;99566.81;5019087;28;20030;-81
2023/03/13 08:56:29;;;;;;;10.73;2.10;;;;;;;16.60;64.29;99570.19;5006031;28;20033;-81
2023/03/13 08:58:56;;;;;;;9.10;2.00;;;;;;;16.29;64.31;99569.38;5000001;28;20060;-81
2023/03/13 09:01:24;;;;;;;13.02;2.40;;;;;;;16.35;64.18;99570.97;5024378;28;20036;-81
2023/03/13 09:03:52;;;;;;;11.23;2.05;;;;;;;16.41;63.57;99571.66;5022184;28;20109;-80
2023/03/13 09:06:20;;;;;;;12.63;2.20;;;;;;;16.21;63.11;99576.66;5024904;28;20033;-81
2023/03/13 09:08:46;;;;;;;9.60;2.10;;;;;;;16.19;63.29;99550.41;5002413;28;20494;-81
2023/03/13 09:11:14;;;;;;;10.23;1.92;;;;;;;16.55;62.35;99547.53;5024509;28;20037;-80
2023/03/13 09:13:46;;;;;;;10.65;2.10;;;;;;;16.45;62.07;99528.56;5018836;28;20038;-80
2023/03/13 09:16:20;;;;;;;11.35;2.08;;;;;;;16.60;61.42;99538.63;5026158;28;20240;-81
2023/03/13 09:18:46;;;;;;;9.13;2.30;;;;;;;16.56;62.13;99542.25;5020005;28;20041;-80
2023/03/13 09:21:20;;;;;;;8.68;1.92;;;;;;;17.15;60.93;99530.66;5024323;28;20037;-80
2023/03/13 09:23:46;;;;;;;9.73;2.05;;;;;;;17.01;61.63;99534.63;5019095;28;20059;-81
2023/03/13 09:26:21;;;;;;;10.27;2.33;;;;;;;16.61;62.61;99534.22;5007535;28;20503;-81
2023/03/13 09:28:51;;;;;;;9.57;2.20;;;;;;;16.90;62.29;99535.88;5019962;28;20501;-79
2023/03/13 09:31:21;;;;;;;10.07;1.95;;;;;;;16.88;62.48;99535.09;5024222;28;20089;-81
2023/03/13 09:33:48;;;;;;;9.82;1.90;;;;;;;16.97;61.94;99543.53;5022104;28;20033;-79
2023/03/13 09:36:18;;;;;;;6.13;1.63;;;;;;;17.16;62.15;99519.19;5027935;28;20029;-80
2023/03/13 09:38:46;;;;;;;7.00;1.80;;;;;;;17.30;60.81;99514.31;5012860;28;20037;-80
2023/03/13 09:41:32;;;;;;;8.93;1.85;;;;;;;17.14;61.71;99499.97;5029633;28;20377;-80
2023/03/13 09:44:14;;;;;;;8.10;1.60;;;;;;;17.07;61.84;99503.75;5024679;28;21865;-79
2023/03/13 09:46:46;;;;;;;6.95;1.80;;;;;;;17.43;61.08;99482.22;5022360;28;20030;-81
2023/03/13 09:49:39;;;;;;;6.15;1.70;;;;;;;17.41;60.83;99496.34;5006849;28;20036;-82
2023/03/13 09:52:24;;;;;;;8.20;1.60;;;;;;;17.24;61.11;99494.31;5005185;28;20064;-81
2023/03/13 09:55:01;;;;;;;4.07;1.30;;;;;;;17.32;61.21;99488.78;5006092;28;20047;-79
2023/03/13 09:57:45;;;;;;;7.82;1.52;;;;;;;17.59;60.69;99477.22;5029439;28;20033;-81
2023/03/13 10:00:28;;;;;;;5.88;1.55;;;;;;;16.93;62.20;99481.38;5006774;28;20041;-80
2023/03/13 10:03:06;;;;;;;6.03;1.30;;;;;;;17.00;62.02;99482.88;5022350;28;20379;-80
2023/03/13 10:05:32;;;;;;;6.35;1.50;;;;;;;16.88;61.70;99469.28;5027552;28;20037;-81
2023/03/13 10:08:14;;;;;;;6.88;1.55;;;;;;;17.54;60.86;99478.31;5023438;28;20518;-80
2023/03/13 10:10:57;;;;;;;5.88;1.60;;;;;;;17.20;61.13;99484.78;5023730;28;20044;-79
2023/03/13 10:13:54;;;;;;;7.07;1.70;;;;;;;17.14;60.85;99489.44;5017486;28;20445;-79
2023/03/13 10:16:31;;;;;;;5.50;1.70;;;;;;;17.48;59.73;99478.53;5005163;28;20060;-79
2023/03/13 10:19:13;;;;;;;6.15;1.90;;;;;;;17.27;59.50;99467.88;5005036;28;20038;-82
2023/03/13 10:21:41;;;;;;;11.48;1.85;;;;;;;17.08;59.45;99482.59;5009396;28;20033;-82
2023/03/13 10:24:25;;;;;;;7.13;1.65;;;;;;;17.03;58.98;99489.81;5022242;28;20030;-80
2023/03/13 10:26:50;;;;;;;8.23;2.05;;;;;;;17.80;57.89;99484.38;5022962;28;20037;-81
2023/03/13 10:29:23;;;;;;;8.20;2.15;;;;;;;16.93;56.42;99467.34;5027635;28;20040;-80
2023/03/13 10:32:00;;;;;;;9.73;2.07;;;;;;;17.18;55.97;99481.38;5022935;28;20383;-80
2023/03/13 10:34:59;;;;;;;7.88;2.00;;;;;;;17.36;55.73;99496.53;5027191;28;20499;-80
2023/03/13 10:37:42;;;;;;;8.48;2.08;;;;;;;17.11;55.83;99460.56;5022761;28;20376;-80
2023/03/13 10:40:27;;;;;;;9.23;1.73;;;;;;;17.30;56.48;99472.19;5006252;28;20545;-80
2023/03/13 10:43:01;;;;;;;6.78;1.83;;;;;;;17.27;56.54;99461.72;5026231;28;20049;-79
2023/03/13 10:45:31;;;;;;;10.93;2.20;;;;;;;17.22;56.67;99482.97;5013573;28;20064;-79
2023/03/13 10:48:03;;;;;;;10.95;2.10;;;;;;;17.38;56.92;99475.41;5025385;28;20060;-80
2023/03/13 10:50:33;;;;;;;11.30;2.42;;;;;;;17.63;57.15;99467.44;5030977;28;20071;-79
2023/03/13 10:53:16;;;;;;;9.95;2.33;;;;;;;17.88;56.23;99470.88;5025944;28;20136;-78
2023/03/13 10:55:43;;;;;;;12.07;2.28;;;;;;;18.04;55.23;99472.03;5027397;28;20033;-78
2023/03/13 10:58:22;;;;;;;9.57;2.30;;;;;;;17.26;56.80;99466.13;5031016;28;20036;-78
2023/03/13 11:00:48;;;;;;;12.25;2.03;;;;;;;17.29;57.29;99475.72;5023731;28;20494;-79
2023/03/13 11:03:13;;;;;;;8.65;2.10;;;;;;;17.38;57.08;99475.41;5028735;28;20109;-78
2023/03/13 11:05:42;;;;;;;12.15;2.30;;;;;;;17.58;55.33;99475.50;5029573;28;20045;-80
2023/03/13 11:08:28;;;;;;;11.73;2.45;;;;;;;17.57;53.71;99468.50;5039537;28;20017;-79
2023/03/13 11:11:05;;;;;;;11.23;2.40;;;;;;;17.26;53.98;99491.66;5045409;28;20018;-80
2023/03/13 11:13:41;;;;;;;11.15;2.53;;;;;;;17.10;54.16;99462.34;5040571;28;20042;-79
2023/03/13 11:16:22;;;;;;;12.80;2.35;;;;;;;17.10;53.86;99443.91;5025591;28;20365;-80
2023/03/13 11:18:50;;;;;;;15.07;2.95;;;;;;;17.35;53.13;99478.13;5026206;28;20033;-82
2023/03/13 11:21:43;;;;;;;13.85;2.63;;;;;;;17.16;53.27;99475.28;5021111;28;20037;-81
2023/03/13 11:24:42;;;;;;;17.38;3.00;;;;;;;17.27;53.02;99473.13;5011793;28;20037;-80
2023/03/13 11:27:13;;;;;;;11.65;2.58;;;;;;;17.41;52.52;99483.19;5002705;28;20550;-80
2023/03/13 11:29:53;;;;;;;12.48;2.53;;;;;;;17.22;52.29;99492.66;5024748;28;20163;-80
2023/03/13 11:32:59;;;;;;;12.75;2.75;;;;;;;17.30;51.76;99466.91;5003278;28;20026;-80
2023/03/13 11:35:48;;;;;;;15.10;2.58;;;;;;;17.51;51.38;99471.38;5020485;28;20371;-80
2023/03/13 11:38:34;;;;;;;16.17;3.05;;;;;;;17.47;50.28;99471.56;5019932;28;20026;-79